Time;durP1;ratioP1;P1;durP2;ratioP2;P2;SDS_P1;SDS_P2;PMS_P1;PMS_P2;Temp;Humidity;BMP_temperature;BMP_pressure;BME280_temperature;BME280_humidity;BME280_pressure;Samples;Min_cycle;Max_cycle;Signal;HPM_P1;HPM_P2
2022/08/04 00:02:24;;;;;;;2.47;1.40;;;27.80;46.20;;;31.67;30.32;101195.84;5096590;28;20047;-11
2022/08/04 00:05:02;;;;;;;2.25;1.42;;;27.80;46.30;;;31.68;30.00;101197.56;5084296;28;20047;-11
2022/08/04 00:08:00;;;;;;;1.58;1.35;;;27.80;46.30;;;31.69;30.20;101201.09;5114461;28;20109;-11
2022/08/04 00:10:27;;;;;;;2.45;1.30;;;27.80;46.20;;;31.72;30.02;101196.22;5097112;28;20040;-11
2022/08/04 00:12:56;;;;;;;1.60;1.45;;;27.80;46.30;;;31.68;30.06;101192.16;5114797;28;20071;-11
2022/08/04 00:15:23;;;;;;;2.15;1.50;;;27.70;46.20;;;31.70;29.87;101200.09;5096191;28;20054;-11
2022/08/04 00:18:04;;;;;;;1.77;1.38;;;27.80;46.30;;;31.70;29.92;101189.28;5114288;28;20109;-11
2022/08/04 00:20:34;;;;;;;2.88;1.60;;;27.80;46.20;;;31.71;30.12;101196.38;5114469;28;20549;-11
2022/08/04 00:23:01;;;;;;;3.92;1.60;;;27.70;46.20;;;31.66;29.90;101187.91;5096365;28;20081;-11
2022/08/04 00:25:27;;;;;;;3.10;1.73;;;27.70;46.30;;;31.68;30.24;101189.44;5114675;28;20051;-11
2022/08/04 00:27:54;;;;;;;1.38;1.27;;;27.70;46.20;;;31.66;30.39;101183.34;5114308;28;20040;-11
2022/08/04 00:30:20;;;;;;;3.10;1.60;;;27.70;46.30;;;31.65;30.01;101180.81;5114431;28;20043;-11
2022/08/04 00:32:46;;;;;;;1.80;1.35;;;27.70;46.30;;;31.65;30.11;101184.34;5114750;28;20108;-11
2022/08/04 00:35:16;;;;;;;2.65;1.50;;;27.70;46.40;;;31.64;30.23;101185.34;5114567;28;20126;-11
2022/08/04 00:37:44;;;;;;;1.57;1.30;;;27.70;46.30;;;31.70;30.27;101186.59;5114287;28;20496;-11
2022/08/04 00:40:49;;;;;;;1.90;1.40;;;27.70;46.30;;;31.67;30.16;101189.59;5114524;28;20481;-11
2022/08/04 00:44:08;;;;;;;2.35;1.40;;;27.70;46.20;;;31.71;30.08;101186.44;5114275;28;20051;-11
2022/08/04 00:46:48;;;;;;;1.95;1.65;;;27.70;46.20;;;31.69;30.18;101184.88;5041513;28;20067;-11
2022/08/04 00:49:46;;;;;;;2.70;1.35;;;27.70;46.30;;;31.70;30.18;101192.84;5114017;28;20180;-11
2022/08/04 00:52:37;;;;;;;2.55;1.63;;;27.70;46.30;;;31.69;30.05;101183.06;5112788;28;20073;-11
2022/08/04 00:55:43;;;;;;;1.90;1.53;;;27.70;46.30;;;31.70;30.10;101183.88;5114095;28;20428;-11
2022/08/04 00:58:50;;;;;;;2.50;1.58;;;27.70;46.30;;;31.66;30.04;101183.34;5113975;28;20511;-11
2022/08/04 01:01:55;;;;;;;2.53;1.33;;;27.70;46.30;;;31.66;30.30;101177.94;5095726;28;20047;-11
2022/08/04 01:04:45;;;;;;;2.83;1.58;;;27.70;46.30;;;31.65;29.86;101170.84;5113957;28;20039;-11
2022/08/04 01:07:30;;;;;;;2.47;1.75;;;27.70;46.30;;;31.64;30.35;101171.00;5113735;28;20083;-11
2022/08/04 01:10:36;;;;;;;1.52;1.20;;;27.70;46.30;;;31.64;30.05;101165.59;5094871;28;20048;-11
2022/08/04 01:13:17;;;;;;;1.92;1.30;;;27.70;46.40;;;-147.20;100.00;58430.41;5113694;28;20093;-11
2022/08/04 01:15:53;;;;;;;2.47;1.42;;;27.70;46.50;;;-147.20;100.00;58430.41;5094830;28;20056;-11
2022/08/04 01:18:36;;;;;;;3.60;1.67;;;27.70;46.40;;;-147.20;100.00;58430.41;5113707;28;20406;-9
2022/08/04 01:21:05;;;;;;;2.42;1.60;;;27.70;46.50;;;-147.20;100.00;58430.41;5095274;28;20419;-9
2022/08/04 01:23:46;;;;;;;3.05;1.67;;;27.70;46.60;;;-147.20;100.00;58430.41;5095494;28;20051;-9
2022/08/04 01:26:53;;;;;;;2.10;1.30;;;27.70;46.50;;;-147.20;100.00;58430.41;5113591;28;20052;-9
2022/08/04 01:29:22;;;;;;;1.70;1.50;;;27.70;46.50;;;-147.20;100.00;58430.41;5095657;28;20084;-9
2022/08/04 01:32:06;;;;;;;1.40;1.30;;;27.70;46.40;;;-147.20;100.00;58430.41;5113846;28;20074;-9
2022/08/04 01:34:46;;;;;;;2.75;1.60;;;27.70;46.40;;;-147.20;100.00;58430.41;5095152;28;20382;-9
2022/08/04 01:37:40;;;;;;;2.33;1.30;;;27.70;46.40;;;-147.20;100.00;58430.41;5094860;28;20077;-9
2022/08/04 01:40:07;;;;;;;2.95;1.30;;;27.70;46.40;;;-147.20;100.00;58430.41;5113436;28;20052;-9
2022/08/04 01:42:35;;;;;;;1.92;1.40;;;27.70;46.50;;;-147.20;100.00;58430.41;5113233;28;20456;-10
2022/08/04 01:45:12;;;;;;;1.42;1.23;;;27.70;46.50;;;-147.20;100.00;58430.41;5094347;28;20052;-11
2022/08/04 01:47:47;;;;;;;2.15;1.52;;;27.70;46.50;;;-147.20;100.00;58430.41;5113021;28;20435;-11
2022/08/04 01:50:13;;;;;;;2.25;1.33;;;27.70;46.50;;;-147.20;100.00;58430.41;5113332;28;20079;-11
2022/08/04 01:52:42;;;;;;;2.58;1.60;;;27.70;46.50;;;-147.20;100.00;58430.41;5113300;28;20047;-11
2022/08/04 01:55:11;;;;;;;2.55;1.60;;;27.60;46.50;;;-147.20;100.00;58430.41;5113051;28;20054;-11
2022/08/04 01:57:45;;;;;;;1.20;1.10;;;27.60;46.50;;;-147.20;100.00;58430.41;5112711;28;20058;-11
2022/08/04 02:00:26;;;;;;;2.45;1.50;;;27.60;46.50;;;-147.20;100.00;58430.41;5113022;28;20516;-11
2022/08/04 02:02:54;;;;;;;1.10;1.00;;;27.60;46.60;;;-147.20;100.00;58430.41;5094734;28;20108;-11
2022/08/04 02:05:24;;;;;;;1.83;1.45;;;27.60;46.50;;;-147.20;100.00;58430.41;5113060;28;20480;-11
2022/08/04 02:08:21;;;;;;;2.85;1.80;;;27.60;46.50;;;-147.20;100.00;58430.41;5089767;28;20406;-11
2022/08/04 02:11:03;;;;;;;2.45;1.80;;;27.60;46.60;;;-147.20;100.00;58430.41;5112941;28;20055;-11
2022/08/04 02:13:46;;;;;;;1.60;1.10;;;27.60;46.50;;;-147.20;100.00;58430.41;5095042;28;20050;-11
2022/08/04 02:16:21;;;;;;;1.55;1.45;;;27.60;46.50;;;-147.20;100.00;58430.41;5113003;28;20384;-11
2022/08/04 02:19:20;;;;;;;2.60;1.50;;;27.60;46.50;;;-147.20;100.00;58430.41;5092923;28;20048;-11
2022/08/04 02:22:02;;;;;;;2.20;1.30;;;27.60;46.50;;;-147.20;100.00;58430.41;5092286;28;20044;-11
2022/08/04 02:24:31;;;;;;;1.80;1.50;;;27.60;46.50;;;-147.20;100.00;58430.41;5112702;28;20071;-11
2022/08/04 02:27:01;;;;;;;1.60;1.40;;;27.60;46.50;;;-147.20;100.00;58430.41;5112800;28;20163;-11
2022/08/04 02:29:53;;;;;;;1.50;1.40;;;27.60;46.50;;;-147.20;100.00;58430.41;5113256;28;20075;-11
2022/08/04 02:32:37;;;;;;;1.48;1.38;;;27.60;46.50;;;-147.20;100.00;58430.41;5076078;28;20153;-11
2022/08/04 02:35:11;;;;;;;1.77;1.48;;;27.60;46.50;;;-147.20;100.00;58430.41;5095233;28;20066;-11
2022/08/04 02:37:38;;;;;;;1.85;1.15;;;27.60;46.50;;;-147.20;100.00;58430.41;5112506;28;20055;-11
2022/08/04 02:40:06;;;;;;;3.03;1.33;;;27.60;46.50;;;-147.20;100.00;58430.41;5094827;28;20047;-11
2022/08/04 02:42:33;;;;;;;2.00;1.20;;;27.60;46.50;;;-147.20;100.00;58430.41;5112515;28;20131;-11
2022/08/04 02:45:00;;;;;;;3.00;1.63;;;27.60;46.60;;;-147.20;100.00;58430.41;5112516;28;20044;-11
2022/08/04 02:47:27;;;;;;;3.20;1.70;;;27.60;46.60;;;-147.20;100.00;58430.41;5112495;28;20094;-11
2022/08/04 02:49:56;;;;;;;1.45;1.35;;;27.60;46.60;;;-147.20;100.00;58430.41;5112688;28;20130;-11
2022/08/04 02:52:24;;;;;;;1.92;1.35;;;27.60;46.60;;;-147.20;100.00;58430.41;5112427;28;20516;-11
2022/08/04 02:54:57;;;;;;;2.35;1.30;;;27.60;46.60;;;-147.20;100.00;58430.41;5094099;28;20055;-11
2022/08/04 02:57:26;;;;;;;2.38;1.58;;;27.60;46.60;;;-147.20;100.00;58430.41;5093301;28;20466;-11
2022/08/04 03:00:08;;;;;;;1.75;1.35;;;27.60;46.60;;;-147.20;100.00;58430.41;5093960;28;20040;-12
2022/08/04 03:03:03;;;;;;;1.45;1.35;;;27.60;46.60;;;-147.20;100.00;58430.41;5112712;28;20419;-13
2022/08/04 03:05:53;;;;;;;1.63;1.48;;;27.50;46.60;;;-147.20;100.00;58430.41;5112184;28;20059;-11
2022/08/04 03:09:14;;;;;;;2.28;1.40;;;27.50;46.60;;;-147.20;100.00;58430.41;5093939;28;20051;-11
2022/08/04 03:11:54;;;;;;;1.65;1.27;;;27.50;46.60;;;-147.20;100.00;58430.41;5112433;28;20054;-11
2022/08/04 03:14:53;;;;;;;1.83;1.38;;;27.50;46.60;;;-147.20;100.00;58430.41;5113259;28;20043;-11
2022/08/04 03:17:53;;;;;;;2.00;1.30;;;27.60;46.70;;;-147.20;100.00;58430.41;5097679;28;20058;-11
2022/08/04 03:21:17;;;;;;;2.42;1.17;;;27.50;46.60;;;-147.20;100.00;58430.41;5097644;28;20059;-11
2022/08/04 03:24:39;;;;;;;2.00;1.20;;;27.60;46.70;;;-147.20;100.00;58430.41;5097687;28;20442;-11
2022/08/04 03:27:35;;;;;;;2.50;1.40;;;27.60;46.70;;;-147.20;100.00;58430.41;5115762;28;20043;-11
2022/08/04 03:30:13;;;;;;;3.13;1.67;;;27.50;46.60;;;-147.20;100.00;58430.41;5113559;28;20127;-11
2022/08/04 03:33:26;;;;;;;2.08;1.60;;;27.50;46.70;;;-147.20;100.00;58430.41;5097302;28;20560;-11
2022/08/04 03:35:58;;;;;;;2.05;1.33;;;27.50;46.60;;;-147.20;100.00;58430.41;5115254;28;20074;-11
2022/08/04 03:39:04;;;;;;;1.52;1.30;;;27.60;46.70;;;-147.20;100.00;58430.41;5115625;28;20052;-11
2022/08/04 03:41:54;;;;;;;1.42;1.33;;;27.50;46.70;;;-147.20;100.00;58430.41;5115270;28;20104;-11
2022/08/04 03:44:40;;;;;;;1.98;1.25;;;27.50;46.70;;;-147.20;100.00;58430.41;5096682;28;20071;-11
2022/08/04 03:48:01;;;;;;;1.40;1.30;;;27.50;46.80;;;-147.20;100.00;58430.41;5115554;28;20059;-11
2022/08/04 03:54:25;;;;;;;1.88;1.50;;;27.60;46.70;;;-147.20;100.00;58430.41;5114992;28;20052;-12
2022/08/04 03:57:21;;;;;;;3.33;1.55;;;27.50;46.60;;;-147.20;100.00;58430.41;5114822;28;20489;-11
2022/08/04 04:00:20;;;;;;;1.42;1.33;;;27.60;46.80;;;-147.20;100.00;58430.41;5115609;28;20079;-11
2022/08/04 04:03:38;;;;;;;1.85;1.30;;;27.60;46.70;;;-147.20;100.00;58430.41;5114994;28;20078;-11
2022/08/04 04:06:28;;;;;;;1.38;1.27;;;27.60;46.70;;;-147.20;100.00;58430.41;5096963;28;20070;-11
2022/08/04 04:09:24;;;;;;;1.77;1.42;;;27.60;46.70;;;-147.20;100.00;58430.41;5096854;28;20489;-11
2022/08/04 04:12:19;;;;;;;3.05;1.63;;;27.60;46.70;;;-147.20;100.00;58430.41;5114979;28;20047;-10
2022/08/04 04:15:02;;;;;;;2.50;1.60;;;27.60;46.70;;;-147.20;100.00;58430.41;5114736;28;20039;-9
2022/08/04 04:17:53;;;;;;;2.72;1.20;;;27.60;46.80;;;-147.20;100.00;58430.41;5094215;28;20406;-9
2022/08/04 04:20:55;;;;;;;1.45;1.30;;;27.60;46.70;;;-147.20;100.00;58430.41;5114976;28;20592;-9
2022/08/04 04:23:43;;;;;;;1.85;1.45;;;27.70;46.60;;;-147.20;100.00;58430.41;5096339;28;20051;-9
2022/08/04 04:26:31;;;;;;;2.53;1.63;;;27.70;46.50;;;-147.20;100.00;58430.41;5096087;28;20070;-9
2022/08/04 04:29:28;;;;;;;2.03;1.48;;;27.80;46.50;;;-147.20;100.00;58430.41;5095609;28;20065;-9
2022/08/04 04:32:38;;;;;;;1.95;1.33;;;27.80;46.50;;;-147.20;100.00;58430.41;5096231;28;20051;-9
2022/08/04 04:35:46;;;;;;;1.70;1.50;;;27.80;46.30;;;-147.20;100.00;58430.41;5096118;28;20050;-9
2022/08/04 04:38:44;;;;;;;1.40;1.30;;;27.90;46.30;;;-147.20;100.00;58430.41;5114627;28;20067;-9
2022/08/04 04:41:18;;;;;;;2.28;1.30;;;27.90;46.20;;;-147.20;100.00;58430.41;5094971;28;20578;-9
2022/08/04 04:44:47;;;;;;;1.85;1.48;;;28.00;46.20;;;-147.20;100.00;58430.41;5114602;28;20052;-9
2022/08/04 04:47:30;;;;;;;2.25;1.38;;;28.00;46.10;;;-147.20;100.00;58430.41;5095128;28;20048;-9
2022/08/04 04:50:33;;;;;;;1.33;1.20;;;28.10;46.10;;;-147.20;100.00;58430.41;5079055;28;20485;-9
2022/08/04 04:53:28;;;;;;;2.88;1.40;;;28.10;46.00;;;-147.20;100.00;58430.41;5114070;28;20059;-9
2022/08/04 04:57:05;;;;;;;1.33;1.20;;;28.20;45.90;;;-147.20;100.00;58430.41;5079393;28;20078;-9
2022/08/04 04:59:36;;;;;;;1.58;1.27;;;28.20;45.80;;;-147.20;100.00;58430.41;5079540;28;20063;-9
2022/08/04 05:02:40;;;;;;;2.00;1.55;;;28.30;45.80;;;-147.20;100.00;58430.41;5114037;28;20039;-9
2022/08/04 05:05:37;;;;;;;3.30;1.60;;;28.30;45.80;;;-147.20;100.00;58430.41;5114246;28;20040;-9
2022/08/04 05:08:43;;;;;;;2.33;1.40;;;28.30;45.70;;;-147.20;100.00;58430.41;5094968;28;20138;-9
2022/08/04 05:11:28;;;;;;;2.13;1.42;;;28.30;45.60;;;-147.20;100.00;58430.41;5056676;28;20123;-9
2022/08/04 05:14:00;;;;;;;1.52;1.42;;;28.40;45.60;;;-147.20;100.00;58430.41;5077005;28;20079;-9
2022/08/04 05:16:39;;;;;;;1.63;1.20;;;28.50;45.50;;;-147.20;100.00;58430.41;5095351;28;20048;-9
2022/08/04 05:19:33;;;;;;;2.33;1.30;;;28.50;45.40;;;-147.20;100.00;58430.41;5095008;28;20052;-9
2022/08/04 05:22:17;;;;;;;1.40;1.30;;;28.50;45.30;;;-147.20;100.00;58430.41;5113570;28;20077;-9
2022/08/04 05:24:46;;;;;;;1.77;1.40;;;28.60;45.20;;;-147.20;100.00;58430.41;5095417;28;20130;-9
2022/08/04 05:27:25;;;;;;;2.58;1.40;;;28.60;45.10;;;-147.20;100.00;58430.41;5113528;28;20035;-9
2022/08/04 05:29:58;;;;;;;2.80;1.20;;;28.70;45.10;;;-147.20;100.00;58430.41;5094783;28;20047;-11
2022/08/04 05:32:31;;;;;;;2.03;1.40;;;28.70;45.00;;;-147.20;100.00;58430.41;5113823;28;20124;-10
2022/08/04 05:35:04;;;;;;;1.70;1.20;;;28.80;45.00;;;-147.20;100.00;58430.41;5095262;28;20070;-10
2022/08/04 05:37:33;;;;;;;1.40;1.17;;;28.80;44.90;;;-147.20;100.00;58430.41;5112744;28;20066;-10
2022/08/04 05:40:04;;;;;;;1.83;1.42;;;28.90;44.90;;;-147.20;100.00;58430.41;5095113;28;20047;-10
2022/08/04 05:42:33;;;;;;;2.00;1.33;;;28.90;44.80;;;-147.20;100.00;58430.41;5095158;28;20048;-10
2022/08/04 05:44:59;;;;;;;2.13;1.33;;;29.00;44.70;;;-147.20;100.00;58430.41;5113344;28;20489;-10
2022/08/04 05:47:28;;;;;;;2.00;1.35;;;29.00;44.60;;;-147.20;100.00;58430.41;5113260;28;20058;-10
2022/08/04 05:49:55;;;;;;;1.42;1.25;;;29.10;44.60;;;-147.20;100.00;58430.41;5094902;28;20050;-10
2022/08/04 05:52:21;;;;;;;1.83;1.50;;;29.10;44.50;;;-147.20;100.00;58430.41;5078137;28;20058;-10
2022/08/04 05:54:50;;;;;;;2.33;1.50;;;29.10;44.50;;;-147.20;100.00;58430.41;5113015;28;20047;-10
2022/08/04 05:57:16;;;;;;;2.45;1.30;;;29.10;44.40;;;-147.20;100.00;58430.41;5094489;28;20061;-10
2022/08/04 05:59:45;;;;;;;1.27;1.15;;;29.20;44.40;;;-147.20;100.00;58430.41;5094829;28;20043;-10
2022/08/04 06:02:15;;;;;;;1.77;1.35;;;29.20;44.40;;;-147.20;100.00;58430.41;5113370;28;20055;-10
2022/08/04 06:04:46;;;;;;;3.33;1.53;;;29.20;44.30;;;-147.20;100.00;58430.41;5113101;28;20058;-10
2022/08/04 06:07:12;;;;;;;;;;;29.30;44.30;;;-147.20;100.00;58430.41;5113332;28;20484;-11
2022/08/04 06:09:39;;;;;;;1.45;1.20;;;29.30;44.20;;;-147.20;100.00;58430.41;5094798;28;19915;-10
2022/08/04 06:12:18;;;;;;;1.30;1.20;;;29.30;44.10;;;-147.20;100.00;58430.41;5112815;28;20041;-10
2022/08/04 06:14:48;;;;;;;1.55;1.33;;;29.40;44.10;;;-147.20;100.00;58430.41;5094685;28;20486;-10
2022/08/04 06:17:22;;;;;;;1.50;1.40;;;29.40;44.00;;;-147.20;100.00;58430.41;5094717;28;20056;-10
2022/08/04 06:19:51;;;;;;;1.58;1.20;;;29.50;44.00;;;-147.20;100.00;58430.41;5113056;28;20039;-10
2022/08/04 06:22:18;;;;;;;2.45;1.35;;;29.50;44.00;;;-147.20;100.00;58430.41;5094639;28;20071;-10
2022/08/04 06:24:47;;;;;;;2.55;1.52;;;29.40;43.90;;;-147.20;100.00;58430.41;5094544;28;20062;-10
2022/08/04 06:27:16;;;;;;;2.00;1.27;;;29.50;44.00;;;-147.20;100.00;58430.41;5112621;28;20047;-10
2022/08/04 06:29:43;;;;;;;1.58;1.48;;;29.50;44.00;;;-147.20;100.00;58430.41;5095047;28;20138;-10
2022/08/04 06:32:26;;;;;;;1.40;1.30;;;29.40;43.90;;;-147.20;100.00;58430.41;5113001;28;20134;-10
2022/08/04 06:34:58;;;;;;;2.50;1.50;;;29.50;44.00;;;-147.20;100.00;58430.41;5096613;28;20050;-10
2022/08/04 06:37:26;;;;;;;1.88;1.23;;;29.50;44.00;;;-147.20;100.00;58430.41;5112489;28;20062;-10
2022/08/04 06:39:53;;;;;;;1.80;1.27;;;29.50;43.90;;;-147.20;100.00;58430.41;5094778;28;20039;-10
2022/08/04 06:42:24;;;;;;;1.40;1.30;;;29.50;44.50;;;-147.20;100.00;58430.41;5092551;28;20405;-10
2022/08/04 06:44:57;;;;;;;1.52;1.10;;;29.50;43.90;;;-147.20;100.00;58430.41;5092752;28;20056;-10
2022/08/04 06:47:23;;;;;;;1.83;1.30;;;29.50;43.90;;;-147.20;100.00;58430.41;5113093;28;20097;-10
2022/08/04 06:49:52;;;;;;;1.30;1.00;;;29.50;44.00;;;-147.20;100.00;58430.41;5078990;28;20495;-10
2022/08/04 06:52:19;;;;;;;1.33;1.00;;;29.50;43.90;;;-147.20;100.00;58430.41;5095709;28;20044;-10
2022/08/04 06:54:47;;;;;;;3.38;1.52;;;29.50;43.80;;;-147.20;100.00;58430.41;5116034;28;20408;-10
2022/08/04 06:57:17;;;;;;;1.30;1.10;;;29.50;43.90;;;-147.20;100.00;58430.41;5115505;28;20052;-10
2022/08/04 06:59:50;;;;;;;1.37;1.20;;;29.50;43.90;;;-147.20;100.00;58430.41;5116222;28;20048;-10
2022/08/04 07:02:23;;;;;;;1.60;1.25;;;29.60;43.90;;;-147.20;100.00;58430.41;5115899;28;20062;-10
2022/08/04 07:04:49;;;;;;;2.17;1.33;;;29.60;43.90;;;-147.20;100.00;58430.41;5097586;28;20054;-10
2022/08/04 07:07:15;;;;;;;1.90;1.30;;;29.60;43.90;;;-147.20;100.00;58430.41;5115859;28;20044;-10
2022/08/04 07:09:41;;;;;;;5.30;1.60;;;29.50;43.80;;;-147.20;100.00;58430.41;5115775;28;20085;-10
2022/08/04 07:12:09;;;;;;;2.28;1.88;;;29.60;43.90;;;-147.20;100.00;58430.41;5076996;28;20051;-10
2022/08/04 07:14:37;;;;;;;1.20;1.10;;;29.60;43.80;;;-147.20;100.00;58430.41;5115731;28;20047;-10
2022/08/04 07:17:06;;;;;;;1.40;1.30;;;29.70;43.70;;;-147.20;100.00;58430.41;5096893;28;20063;-10
2022/08/04 07:19:36;;;;;;;1.40;1.25;;;29.70;43.60;;;-147.20;100.00;58430.41;5096421;28;20052;-10
2022/08/04 07:22:04;;;;;;;1.80;1.30;;;29.80;43.50;;;-147.20;100.00;58430.41;5097317;28;20048;-10
2022/08/04 07:24:36;;;;;;;1.35;1.20;;;29.80;43.50;;;-147.20;100.00;58430.41;5080423;28;20055;-10
2022/08/04 07:27:04;;;;;;;2.08;1.30;;;29.80;43.40;;;-147.20;100.00;58430.41;5115788;28;20181;-10
2022/08/04 07:29:30;;;;;;;1.35;1.13;;;29.90;43.50;;;-147.20;100.00;58430.41;5115775;28;20043;-10
2022/08/04 07:31:58;;;;;;;1.30;1.20;;;29.80;43.40;;;-147.20;100.00;58430.41;5115739;28;20119;-11
2022/08/04 07:34:26;;;;;;;1.60;1.30;;;29.80;43.50;;;-147.20;100.00;58430.41;5113781;28;20509;-10
2022/08/04 07:36:56;;;;;;;1.00;1.00;;;29.80;43.50;;;-147.20;100.00;58430.41;5079928;28;20461;-11
2022/08/04 07:39:25;;;;;;;;;;;29.80;43.50;;;-147.20;100.00;58430.41;5116285;28;20185;-10
2022/08/04 07:41:53;;;;;;;1.42;1.30;;;29.80;43.60;;;-147.20;100.00;58430.41;5115200;28;19915;-10
2022/08/04 07:44:20;;;;;;;2.15;1.30;;;29.80;43.60;;;-147.20;100.00;58430.41;5115504;28;20047;-10
2022/08/04 07:46:46;;;;;;;1.90;1.10;;;29.80;43.60;;;-147.20;100.00;58430.41;5115157;28;20097;-10
2022/08/04 07:49:13;;;;;;;1.65;1.23;;;29.80;43.60;;;-147.20;100.00;58430.41;5096733;28;20059;-10
2022/08/04 07:51:39;;;;;;;2.33;1.38;;;29.80;43.60;;;-147.20;100.00;58430.41;5114825;28;20062;-10
2022/08/04 07:54:08;;;;;;;1.33;1.08;;;29.80;43.60;;;-147.20;100.00;58430.41;5114901;28;20126;-10
2022/08/04 07:56:38;;;;;;;1.80;1.55;;;29.80;44.10;;;-147.20;100.00;58430.41;5095351;28;20105;-10
2022/08/04 07:59:05;;;;;;;1.50;1.40;;;29.80;43.60;;;-147.20;100.00;58430.41;5094882;28;20153;-11
2022/08/04 08:01:33;;;;;;;1.30;1.20;;;29.80;43.50;;;-147.20;100.00;58430.41;5114521;28;20066;-10
2022/08/04 08:04:00;;;;;;;1.83;1.30;;;29.90;43.50;;;-147.20;100.00;58430.41;5114775;28;20051;-10
2022/08/04 08:06:28;;;;;;;2.45;1.42;;;29.90;43.50;;;-147.20;100.00;58430.41;5095422;28;20048;-10
2022/08/04 08:08:55;;;;;;;1.52;1.40;;;30.00;43.60;;;-147.20;100.00;58430.41;5094933;28;20508;-10
2022/08/04 08:11:21;;;;;;;1.50;1.27;;;29.90;43.50;;;-147.20;100.00;58430.41;5114686;28;20060;-10
2022/08/04 08:13:47;;;;;;;2.55;1.50;;;29.90;43.50;;;-147.20;100.00;58430.41;5115329;28;20480;-10
2022/08/04 08:16:13;;;;;;;1.35;1.10;;;29.90;43.60;;;-147.20;100.00;58430.41;5114521;28;20447;-10
2022/08/04 08:18:40;;;;;;;1.35;1.02;;;29.90;43.40;;;-147.20;100.00;58430.41;5094478;28;20110;-10
2022/08/04 08:21:06;;;;;;;1.00;1.00;;;29.90;43.60;;;-147.20;100.00;58430.41;5114595;28;20056;-10
2022/08/04 08:23:34;;;;;;;1.70;1.40;;;29.90;43.80;;;-147.20;100.00;58430.41;5114552;28;20481;-10
2022/08/04 08:26:01;;;;;;;2.03;1.50;;;29.90;43.90;;;-147.20;100.00;58430.41;5096572;28;20097;-10
2022/08/04 08:28:27;;;;;;;1.67;1.30;;;29.90;44.10;;;-147.20;100.00;58430.41;5096082;28;20134;-10
2022/08/04 08:30:53;;;;;;;1.50;1.20;;;30.00;44.30;;;-147.20;100.00;58430.41;5096242;28;20047;-10
2022/08/04 08:33:21;;;;;;;2.00;1.50;;;29.90;44.40;;;-147.20;100.00;58430.41;5114421;28;20071;-10
2022/08/04 08:35:58;;;;;;;3.65;1.40;;;29.90;44.40;;;-147.20;100.00;58430.41;5114245;28;20050;-10
2022/08/04 08:38:42;;;;;;;2.67;1.60;;;29.90;44.60;;;-147.20;100.00;58430.41;5114622;28;20126;-11
2022/08/04 08:41:26;;;;;;;2.20;1.35;;;29.90;44.60;;;-147.20;100.00;58430.41;5114506;28;20047;-10
2022/08/04 08:44:10;;;;;;;3.28;1.35;;;29.90;44.80;;;-147.20;100.00;58430.41;5114591;28;20415;-10
2022/08/04 08:47:38;;;;;;;2.63;1.33;;;29.90;44.80;;;-147.20;100.00;58430.41;5114557;28;20562;-10
2022/08/04 08:50:43;;;;;;;2.47;1.40;;;29.90;44.90;;;-147.20;100.00;58430.41;5095718;28;20055;-10
2022/08/04 08:54:06;;;;;;;3.50;1.75;;;29.90;45.20;;;-147.20;100.00;58430.41;5114567;28;20074;-10
2022/08/04 08:56:56;;;;;;;1.60;1.35;;;29.80;45.40;;;-147.20;100.00;58430.41;5114295;28;20473;-10
2022/08/04 09:00:06;;;;;;;1.30;1.20;;;29.80;45.50;;;-147.20;100.00;58430.41;5114008;28;20052;-10
2022/08/04 09:03:10;;;;;;;2.70;1.60;;;29.80;45.50;;;-147.20;100.00;58430.41;5113923;28;20051;-10
2022/08/04 09:05:45;;;;;;;4.13;1.60;;;29.80;45.80;;;-147.20;100.00;58430.41;5095569;28;20292;-10
2022/08/04 09:08:48;;;;;;;1.80;1.63;;;29.70;45.50;;;-147.20;100.00;58430.41;5095296;28;20050;-10
2022/08/04 09:11:21;;;;;;;2.58;1.65;;;29.70;45.70;;;-147.20;100.00;58430.41;5113668;28;20051;-10
2022/08/04 09:13:57;;;;;;;2.70;1.63;;;29.70;45.90;;;-147.20;100.00;58430.41;5093541;28;20072;-10
2022/08/04 09:17:01;;;;;;;4.18;1.80;;;29.70;45.80;;;-147.20;100.00;58430.41;5113553;28;20051;-10
2022/08/04 09:19:42;;;;;;;5.03;1.85;;;29.70;46.00;;;-147.20;100.00;58430.41;5112720;28;20408;-10
2022/08/04 09:22:12;;;;;;;2.70;1.80;;;29.70;45.90;;;-147.20;100.00;58430.41;5095543;28;20047;-10
2022/08/04 09:24:59;;;;;;;2.58;1.75;;;29.80;46.10;;;-147.20;100.00;58430.41;5114117;28;20043;-10
2022/08/04 09:27:49;;;;;;;4.18;2.20;;;29.70;46.30;;;-147.20;100.00;58430.41;5094987;28;20100;-10
2022/08/04 09:30:20;;;;;;;3.50;2.00;;;29.80;46.60;;;-147.20;100.00;58430.41;5113390;28;20477;-10
2022/08/04 09:33:07;;;;;;;5.85;2.40;;;29.80;46.70;;;-147.20;100.00;58430.41;5113510;28;20055;-10
2022/08/04 09:35:51;;;;;;;3.85;1.98;;;29.70;46.90;;;-147.20;100.00;58430.41;5095275;28;20053;-10
2022/08/04 09:39:00;;;;;;;5.03;2.28;;;29.70;46.90;;;-147.20;100.00;58430.41;5112981;28;20048;-10
2022/08/04 09:41:52;;;;;;;4.00;1.90;;;29.70;46.80;;;-147.20;100.00;58430.41;5096724;28;20047;-10
2022/08/04 09:44:40;;;;;;;7.20;2.70;;;29.70;46.80;;;-147.20;100.00;58430.41;5113166;28;20035;-10
2022/08/04 09:47:19;;;;;;;4.43;2.20;;;29.60;46.70;;;-147.20;100.00;58430.41;5113167;28;20056;-10
2022/08/04 09:50:18;;;;;;;3.25;2.20;;;29.60;46.70;;;-147.20;100.00;58430.41;5113196;28;20044;-10
2022/08/04 09:53:05;;;;;;;6.18;2.63;;;29.60;46.70;;;-147.20;100.00;58430.41;5095164;28;20048;-10
2022/08/04 09:55:57;;;;;;;6.38;2.47;;;29.60;46.60;;;-147.20;100.00;58430.41;5113284;28;20070;-10
2022/08/04 09:59:15;;;;;;;6.32;2.40;;;29.60;46.60;;;-147.20;100.00;58430.41;5094819;28;20044;-10
2022/08/04 10:01:42;;;;;;;3.78;2.42;;;29.60;46.50;;;-147.20;100.00;58430.41;5081258;28;20058;-10
2022/08/04 10:04:12;;;;;;;5.63;2.63;;;29.60;46.60;;;-147.20;100.00;58430.41;5113174;28;20486;-10
2022/08/04 10:07:12;;;;;;;5.28;2.35;;;29.60;46.80;;;-147.20;100.00;58430.41;5113126;28;20489;-10
2022/08/04 10:10:10;;;;;;;5.95;2.40;;;29.60;47.00;;;-147.20;100.00;58430.41;5113006;28;20051;-10
2022/08/04 10:12:54;;;;;;;7.72;2.88;;;29.60;47.50;;;-147.20;100.00;58430.41;5113254;28;20043;-10
2022/08/04 10:15:40;;;;;;;7.13;2.80;;;29.60;47.70;;;-147.20;100.00;58430.41;5112638;28;20512;-10
2022/08/04 10:18:21;;;;;;;8.05;3.03;;;29.70;47.60;;;-147.20;100.00;58430.41;5113352;28;20046;-10
2022/08/04 10:21:20;;;;;;;4.78;2.50;;;29.70;47.40;;;-147.20;100.00;58430.41;5094791;28;20075;-10
2022/08/04 10:24:06;;;;;;;5.07;2.80;;;29.60;47.30;;;-147.20;100.00;58430.41;5095764;28;20415;-10
2022/08/04 10:26:46;;;;;;;5.75;2.90;;;29.60;47.40;;;-147.20;100.00;58430.41;5097156;28;20051;-10
2022/08/04 10:29:25;;;;;;;7.43;2.67;;;29.60;47.30;;;-147.20;100.00;58430.41;5096139;28;20059;-10
2022/08/04 10:32:28;;;;;;;7.32;2.72;;;29.60;47.40;;;-147.20;100.00;58430.41;5098072;28;20643;-10
2022/08/04 10:35:22;;;;;;;4.60;2.85;;;29.60;47.40;;;-147.20;100.00;58430.41;5116297;28;20047;-10
2022/08/04 10:38:12;;;;;;;5.20;3.00;;;29.60;47.60;;;-147.20;100.00;58430.41;5093391;28;20488;-10
2022/08/04 10:41:20;;;;;;;3.78;2.55;;;29.60;47.50;;;-147.20;100.00;58430.41;5116856;28;20857;-10
2022/08/04 10:44:04;;;;;;;3.33;2.53;;;29.60;47.50;;;-147.20;100.00;58430.41;5116276;28;20044;-10
2022/08/04 10:46:35;;;;;;;5.95;2.90;;;29.60;47.40;;;-147.20;100.00;58430.41;5096045;28;20096;-10
2022/08/04 10:49:34;;;;;;;4.57;2.38;;;29.60;47.30;;;-147.20;100.00;58430.41;5096006;28;20048;-10
2022/08/04 10:52:17;;;;;;;5.60;2.70;;;29.60;47.30;;;-147.20;100.00;58430.41;5097957;28;20063;-10
2022/08/04 10:55:04;;;;;;;4.78;2.72;;;29.70;47.20;;;-147.20;100.00;58430.41;5097731;28;20048;-10
2022/08/04 10:57:46;;;;;;;7.20;3.00;;;29.70;47.20;;;-147.20;100.00;58430.41;5097486;28;20051;-10
2022/08/04 11:00:23;;;;;;;5.95;2.90;;;29.70;46.90;;;-147.20;100.00;58430.41;5097719;28;20138;-10
2022/08/04 11:03:16;;;;;;;3.83;3.03;;;29.70;46.80;;;-147.20;100.00;58430.41;5116303;28;20055;-10
2022/08/04 11:05:56;;;;;;;4.22;2.92;;;29.60;46.50;;;-147.20;100.00;58430.41;5097676;28;20056;-10